createdAt,value
2019-04-06T00:00:00.025Z,981.04
2019-04-06T00:02:00.155Z,981.32
2019-04-06T00:03:59.953Z,981.33
2019-04-06T00:06:00.055Z,981.40
2019-04-06T00:08:00.075Z,981.03
2019-04-06T00:10:00.087Z,981.23
2019-04-06T00:11:59.992Z,980.91
2019-04-06T00:14:00.210Z,981.42
2019-04-06T00:16:00.000Z,981.08
2019-04-06T00:18:00.347Z,981.14
2019-04-06T00:20:00.245Z,981.01
2019-04-06T00:21:59.816Z,981.29
2019-04-06T00:23:59.968Z,981.29
2019-04-06T00:25:59.903Z,981.19
2019-04-06T00:28:00.193Z,980.90
2019-04-06T00:29:59.728Z,981.03
2019-04-06T00:32:00.007Z,981.30
2019-04-06T00:33:59.926Z,981.02
2019-04-06T00:36:00.344Z,980.75
2019-04-06T00:38:00.146Z,981.21
2019-04-06T00:39:59.958Z,981.04
2019-04-06T00:42:00.041Z,981.38
2019-04-06T00:43:59.975Z,981.18
2019-04-06T00:45:59.991Z,981.14
2019-04-06T00:48:00.003Z,981.00
2019-04-06T00:49:59.965Z,981.14
2019-04-06T00:52:00.235Z,980.71
2019-04-06T00:54:00.031Z,981.16
2019-04-06T00:56:00.249Z,981.33
2019-04-06T00:57:59.894Z,981.21
2019-04-06T01:00:00.201Z,981.23
2019-04-06T01:01:59.980Z,981.08
2019-04-06T01:03:59.993Z,981.00
2019-04-06T01:06:00.113Z,981.09
2019-04-06T01:08:00.015Z,980.85
2019-04-06T01:10:00.131Z,980.91
2019-04-06T01:12:00.039Z,981.18
2019-04-06T01:13:59.949Z,981.42
2019-04-06T01:16:00.064Z,981.14
2019-04-06T01:17:59.810Z,980.90
2019-04-06T01:20:00.135Z,981.02
2019-04-06T01:22:00.195Z,980.77
2019-04-06T01:23:59.931Z,981.16
2019-04-06T01:26:06.993Z,980.69
2019-04-06T01:28:00.237Z,980.96
2019-04-06T01:30:00.036Z,981.50
2019-04-06T01:32:00.574Z,980.92
2019-04-06T01:34:00.140Z,981.01
2019-04-06T01:36:00.176Z,981.03
2019-04-06T01:38:00.091Z,981.01
2019-04-06T01:40:02.623Z,980.90
2019-04-06T01:42:00.011Z,981.45
2019-04-06T01:44:00.021Z,980.88
2019-04-06T01:46:00.134Z,980.89
2019-04-06T01:48:00.359Z,980.97
2019-04-06T01:50:00.157Z,980.33
2019-04-06T01:52:00.485Z,981.03
2019-04-06T01:54:00.489Z,980.87
2019-04-06T01:56:00.401Z,980.79
2019-04-06T01:58:00.172Z,980.82
2019-04-06T02:00:00.080Z,980.65
2019-04-06T02:01:59.942Z,981.15
2019-04-06T02:04:00.080Z,980.67
2019-04-06T02:06:00.106Z,981.27
2019-04-06T02:07:59.958Z,980.97
2019-04-06T02:10:00.121Z,980.55
2019-04-06T02:11:59.985Z,980.88
2019-04-06T02:14:00.051Z,980.96
2019-04-06T02:16:00.183Z,980.97
2019-04-06T02:18:00.033Z,980.99
2019-04-06T02:20:00.128Z,980.79
2019-04-06T02:22:00.200Z,980.86
2019-04-06T02:24:00.561Z,980.87
2019-04-06T02:25:59.933Z,980.94
2019-04-06T02:28:00.075Z,980.77
2019-04-06T02:30:00.090Z,980.64
2019-04-06T02:32:00.097Z,980.81
2019-04-06T02:33:59.894Z,980.88
2019-04-06T02:36:00.115Z,980.58
2019-04-06T02:38:00.199Z,981.31
2019-04-06T02:40:00.138Z,980.90
2019-04-06T02:42:00.157Z,980.87
2019-04-06T02:44:00.387Z,981.07
2019-04-06T02:46:00.181Z,981.16
2019-04-06T02:48:00.519Z,980.70
2019-04-06T02:50:00.093Z,981.28
2019-04-06T02:52:00.084Z,980.85
2019-04-06T02:54:00.125Z,980.93
2019-04-06T02:56:00.335Z,981.26
2019-04-06T02:58:00.090Z,981.11
2019-04-06T03:00:00.164Z,981.02
2019-04-06T03:02:00.172Z,980.88
2019-04-06T03:04:00.041Z,980.81
2019-04-06T03:06:00.141Z,980.78
2019-04-06T03:08:00.261Z,980.90
2019-04-06T03:09:59.976Z,980.77
2019-04-06T03:12:00.229Z,981.00
2019-04-06T03:14:00.237Z,981.32
2019-04-06T03:16:00.251Z,981.16
2019-04-06T03:18:00.008Z,981.02
2019-04-06T03:20:00.275Z,980.93
2019-04-06T03:22:00.187Z,980.79
2019-04-06T03:24:00.116Z,981.02
2019-04-06T03:26:00.144Z,980.77
2019-04-06T03:28:00.430Z,980.89
2019-04-06T03:30:00.130Z,980.76
2019-04-06T03:32:00.391Z,981.13
2019-04-06T03:34:00.085Z,980.92
2019-04-06T03:36:00.282Z,980.92
2019-04-06T03:38:00.497Z,981.01
2019-04-06T03:40:00.182Z,980.68
2019-04-06T03:42:00.096Z,981.10
2019-04-06T03:44:00.293Z,980.81
2019-04-06T03:46:00.430Z,981.27
2019-04-06T03:48:00.311Z,980.52
2019-04-06T03:50:00.355Z,980.90
2019-04-06T03:52:00.361Z,980.69
2019-04-06T03:54:00.047Z,980.64
2019-04-06T03:56:00.480Z,981.06
2019-04-06T03:58:00.391Z,980.96
2019-04-06T04:00:00.505Z,980.78
2019-04-06T04:02:00.730Z,981.19
2019-04-06T04:04:00.324Z,980.70
2019-04-06T04:06:00.256Z,980.83
2019-04-06T04:08:00.115Z,980.73
2019-04-06T04:10:00.409Z,980.49
2019-04-06T04:12:00.196Z,980.67
2019-04-06T04:14:00.290Z,980.86
2019-04-06T04:16:00.091Z,980.76
2019-04-06T04:18:00.225Z,980.90
2019-04-06T04:20:00.215Z,981.04
2019-04-06T04:22:00.242Z,980.71
2019-04-06T04:24:00.339Z,981.09
2019-04-06T04:26:00.366Z,980.65
2019-04-06T04:28:00.444Z,980.79
2019-04-06T04:30:00.208Z,980.72
2019-04-06T04:32:00.291Z,980.69
2019-04-06T04:34:00.308Z,980.94
2019-04-06T04:36:00.510Z,980.95
2019-04-06T04:38:00.244Z,981.40
2019-04-06T04:40:00.101Z,981.01
2019-04-06T04:42:00.351Z,981.35
2019-04-06T04:44:00.606Z,981.31
2019-04-06T04:46:00.808Z,981.00
2019-04-06T04:48:00.196Z,981.16
2019-04-06T04:50:00.593Z,981.09
2019-04-06T04:52:00.292Z,981.22
2019-04-06T04:54:00.313Z,981.13
2019-04-06T04:56:00.390Z,981.29
2019-04-06T04:58:00.442Z,981.12
2019-04-06T05:00:00.327Z,981.54
2019-04-06T05:02:00.305Z,981.22
2019-04-06T05:04:00.361Z,981.25
2019-04-06T05:06:00.486Z,981.36
2019-04-06T05:08:00.593Z,981.32
2019-04-06T05:10:00.322Z,981.32
2019-04-06T05:12:00.082Z,981.40
2019-04-06T05:14:00.193Z,981.15
2019-04-06T05:16:00.244Z,981.25
2019-04-06T05:18:00.180Z,981.09
2019-04-06T05:20:00.461Z,981.06
2019-04-06T05:22:00.158Z,981.51
2019-04-06T05:24:00.480Z,981.53
2019-04-06T05:26:00.275Z,981.22
2019-04-06T05:28:00.194Z,981.27
2019-04-06T05:30:00.423Z,981.57
2019-04-06T05:32:00.440Z,981.50
2019-04-06T05:34:00.235Z,981.20
2019-04-06T05:36:00.466Z,981.59
2019-04-06T05:38:00.238Z,981.36
2019-04-06T05:40:00.472Z,981.44
2019-04-06T05:42:00.183Z,981.55
2019-04-06T05:44:00.827Z,981.54
2019-04-06T05:46:00.304Z,981.79
2019-04-06T05:48:00.309Z,981.54
2019-04-06T05:50:00.643Z,981.61
2019-04-06T05:52:00.257Z,981.71
2019-04-06T05:54:00.456Z,981.65
2019-04-06T05:56:00.466Z,981.56
2019-04-06T05:58:04.193Z,981.51
2019-04-06T06:00:00.486Z,981.50
2019-04-06T06:02:00.560Z,981.90
2019-04-06T06:04:00.521Z,981.87
2019-04-06T06:06:00.633Z,982.22
2019-04-06T06:08:00.262Z,982.05
2019-04-06T06:10:00.448Z,982.00
2019-04-06T06:12:00.661Z,981.88
2019-04-06T06:14:00.466Z,981.97
2019-04-06T06:16:00.603Z,981.87
2019-04-06T06:18:00.484Z,981.79
2019-04-06T06:20:00.468Z,981.81
2019-04-06T06:22:00.407Z,982.06
2019-04-06T06:24:00.355Z,982.05
2019-04-06T06:26:00.429Z,981.71
2019-04-06T06:28:00.433Z,982.09
2019-04-06T06:30:00.664Z,981.96
2019-04-06T06:32:00.418Z,982.33
2019-04-06T06:34:00.585Z,982.24
2019-04-06T06:36:00.387Z,982.01
2019-04-06T06:38:00.608Z,982.47
2019-04-06T06:40:00.418Z,981.70
2019-04-06T06:42:02.968Z,982.26
2019-04-06T06:44:00.294Z,981.85
2019-04-06T06:46:00.206Z,982.33
2019-04-06T06:48:00.465Z,981.94
2019-04-06T06:50:00.442Z,981.86
2019-04-06T06:52:00.389Z,982.09
2019-04-06T06:54:00.195Z,981.85
2019-04-06T06:56:00.085Z,981.99
2019-04-06T06:58:00.404Z,982.17
2019-04-06T07:00:00.230Z,982.15
2019-04-06T07:02:00.628Z,981.92
2019-04-06T07:04:03.341Z,981.91
2019-04-06T07:06:00.254Z,982.17
2019-04-06T07:08:00.165Z,982.34
2019-04-06T07:10:05.816Z,981.99
2019-04-06T07:12:00.500Z,981.89
2019-04-06T07:14:00.377Z,982.12
2019-04-06T07:16:00.415Z,982.12
2019-04-06T07:18:03.063Z,981.84
2019-04-06T07:20:00.450Z,982.29
2019-04-06T07:22:00.457Z,981.99
2019-04-06T07:24:00.628Z,982.47
2019-04-06T07:26:00.419Z,981.79
2019-04-06T07:28:00.328Z,981.94
2019-04-06T07:30:00.279Z,981.78
2019-04-06T07:32:00.359Z,981.83
2019-04-06T07:34:00.419Z,982.16
2019-04-06T07:36:00.436Z,981.64
2019-04-06T07:38:00.322Z,982.06
2019-04-06T07:40:00.354Z,981.88
2019-04-06T07:42:00.777Z,981.96
2019-04-06T07:44:00.377Z,981.82
2019-04-06T07:46:00.389Z,981.63
2019-04-06T07:48:00.401Z,981.62
2019-04-06T07:50:00.388Z,981.81
2019-04-06T07:52:00.419Z,981.71
2019-04-06T07:54:03.301Z,981.96
2019-04-06T07:56:00.507Z,981.49
2019-04-06T07:58:00.497Z,981.59
2019-04-06T08:00:00.480Z,981.65
2019-04-06T08:02:00.217Z,981.52
2019-04-06T08:04:00.390Z,981.44
2019-04-06T08:06:00.303Z,981.66
2019-04-06T08:08:00.367Z,981.69
2019-04-06T08:10:00.438Z,981.76
2019-04-06T08:12:03.287Z,981.65
2019-04-06T08:14:00.408Z,981.53
2019-04-06T08:16:00.392Z,981.63
2019-04-06T08:18:00.471Z,981.50
2019-04-06T08:20:00.690Z,981.47
2019-04-06T08:22:00.429Z,981.54
2019-04-06T08:24:03.358Z,981.38
2019-04-06T08:26:00.417Z,981.61
2019-04-06T08:28:00.665Z,981.47
2019-04-06T08:30:00.539Z,981.68
2019-04-06T08:32:00.758Z,981.49
2019-04-06T08:34:00.464Z,981.12
2019-04-06T08:36:00.591Z,981.45
2019-04-06T08:38:00.898Z,981.16
2019-04-06T08:40:00.749Z,981.57
2019-04-06T08:42:00.563Z,981.51
2019-04-06T08:44:00.801Z,981.38
2019-04-06T08:46:00.634Z,981.49
2019-04-06T08:48:00.555Z,981.47
2019-04-06T08:50:00.526Z,981.55
2019-04-06T08:52:00.622Z,981.12
2019-04-06T08:54:00.455Z,981.59
2019-04-06T08:56:00.595Z,981.68
2019-04-06T08:58:00.506Z,981.20
2019-04-06T09:00:00.511Z,981.54
2019-04-06T09:02:00.545Z,981.41
2019-04-06T09:04:00.537Z,981.34
2019-04-06T09:06:00.982Z,981.48
2019-04-06T09:08:00.777Z,981.54
2019-04-06T09:10:00.644Z,981.54
2019-04-06T09:12:00.496Z,981.70
2019-04-06T09:14:00.591Z,981.51
2019-04-06T09:16:00.608Z,981.66
2019-04-06T09:18:00.435Z,981.33
2019-04-06T09:20:00.630Z,981.39
2019-04-06T09:22:03.698Z,981.07
2019-04-06T09:24:00.668Z,981.34
2019-04-06T09:26:03.345Z,981.38
2019-04-06T09:28:00.678Z,981.24
2019-04-06T09:30:00.490Z,981.42
2019-04-06T09:32:00.911Z,981.39
2019-04-06T09:34:00.450Z,981.22
2019-04-06T09:36:02.454Z,981.57
2019-04-06T09:38:00.867Z,981.24
2019-04-06T09:40:00.569Z,981.39
2019-04-06T09:42:00.653Z,981.27
2019-04-06T09:44:00.320Z,981.60
2019-04-06T09:46:00.690Z,981.56
2019-04-06T09:48:01.069Z,981.42
2019-04-06T09:50:00.470Z,981.31
2019-04-06T09:52:00.716Z,981.00
2019-04-06T09:54:06.218Z,981.54
2019-04-06T09:56:00.790Z,981.44
2019-04-06T09:58:00.664Z,981.29
2019-04-06T10:00:00.807Z,981.21
2019-04-06T10:02:00.620Z,981.15
2019-04-06T10:04:00.686Z,981.42
2019-04-06T10:06:00.597Z,981.17
2019-04-06T10:08:00.912Z,981.30
2019-04-06T10:10:00.607Z,981.43
2019-04-06T10:12:03.438Z,981.36
2019-04-06T10:14:00.946Z,981.36
2019-04-06T10:16:00.632Z,981.11
2019-04-06T10:18:00.708Z,981.27
2019-04-06T10:20:00.921Z,981.38
2019-04-06T10:22:00.782Z,981.48
2019-04-06T10:24:00.804Z,981.41
2019-04-06T10:26:00.973Z,981.47
2019-04-06T10:28:00.934Z,981.12
2019-04-06T10:30:00.745Z,980.98
2019-04-06T10:32:00.628Z,981.07
2019-04-06T10:34:01.089Z,981.36
2019-04-06T10:36:00.615Z,981.15
2019-04-06T10:38:01.020Z,981.12
2019-04-06T10:40:00.728Z,981.23
2019-04-06T10:42:00.905Z,981.05
2019-04-06T10:44:00.688Z,981.27
2019-04-06T10:46:01.312Z,981.34
2019-04-06T10:48:00.839Z,981.48
2019-04-06T10:50:01.059Z,981.45
2019-04-06T10:52:00.778Z,981.32
2019-04-06T10:54:00.772Z,981.38
2019-04-06T10:56:01.089Z,980.87
2019-04-06T10:58:00.895Z,981.25
2019-04-06T11:00:03.068Z,981.12
2019-04-06T11:02:00.716Z,981.10
2019-04-06T11:04:00.722Z,981.14
2019-04-06T11:06:01.420Z,980.81
2019-04-06T11:08:01.070Z,981.11
2019-04-06T11:10:00.662Z,981.02
2019-04-06T11:12:00.782Z,980.88
2019-04-06T11:14:00.681Z,980.62
2019-04-06T11:16:01.213Z,981.14
2019-04-06T11:18:00.908Z,980.93
2019-04-06T11:20:01.148Z,981.02
2019-04-06T11:22:00.738Z,981.02
2019-04-06T11:24:00.752Z,980.98
2019-04-06T11:26:00.768Z,981.01
2019-04-06T11:28:03.349Z,981.16
2019-04-06T11:30:11.957Z,980.61
2019-04-06T11:32:01.196Z,981.11
2019-04-06T11:34:00.838Z,980.39
2019-04-06T11:36:00.822Z,980.33
2019-04-06T11:38:01.051Z,980.68
2019-04-06T11:40:00.948Z,980.75
2019-04-06T11:42:00.879Z,980.65
2019-04-06T11:44:01.080Z,980.67
2019-04-06T11:46:00.785Z,980.71
2019-04-06T11:48:00.987Z,980.78
2019-04-06T11:50:00.733Z,980.51
2019-04-06T11:52:00.747Z,980.81
2019-04-06T11:54:01.285Z,980.48
2019-04-06T11:56:00.837Z,980.78
2019-04-06T11:58:00.856Z,980.56
2019-04-06T12:00:00.866Z,980.35
2019-04-06T12:02:01.051Z,980.59
2019-04-06T12:04:01.215Z,980.66
2019-04-06T12:06:01.123Z,980.59
2019-04-06T12:08:00.556Z,980.54
2019-04-06T12:10:00.831Z,980.28
2019-04-06T12:12:00.933Z,980.56
2019-04-06T12:14:00.952Z,980.55
2019-04-06T12:16:01.252Z,980.52
2019-04-06T12:18:00.883Z,980.47
2019-04-06T12:20:00.827Z,980.29
2019-04-06T12:22:00.828Z,980.52
2019-04-06T12:24:01.314Z,980.36
2019-04-06T12:26:01.607Z,980.47
2019-04-06T12:28:01.035Z,980.29
2019-04-06T12:30:00.934Z,980.35
2019-04-06T12:32:01.059Z,980.28
2019-04-06T12:34:00.816Z,980.70
2019-04-06T12:36:00.972Z,980.43
2019-04-06T12:38:01.194Z,980.62
2019-04-06T12:40:00.893Z,980.41
2019-04-06T12:42:00.889Z,980.37
2019-04-06T12:44:01.256Z,980.46
2019-04-06T12:46:00.926Z,980.17
2019-04-06T12:48:01.035Z,980.39
2019-04-06T12:50:00.850Z,980.30
2019-04-06T12:52:00.963Z,980.60
2019-04-06T12:54:01.135Z,980.22
2019-04-06T12:56:01.168Z,980.44
2019-04-06T12:58:00.992Z,980.36
2019-04-06T13:00:01.020Z,980.23
2019-04-06T13:02:00.921Z,980.46
2019-04-06T13:04:00.649Z,980.18
2019-04-06T13:06:00.947Z,980.04
2019-04-06T13:08:01.160Z,980.25
2019-04-06T13:10:00.986Z,980.10
2019-04-06T13:12:00.772Z,980.15
2019-04-06T13:14:00.863Z,980.17
2019-04-06T13:16:00.899Z,980.31
2019-04-06T13:18:00.903Z,980.37
2019-04-06T13:20:01.218Z,980.07
2019-04-06T13:22:01.030Z,980.18
2019-04-06T13:24:00.910Z,979.88
2019-04-06T13:26:01.058Z,980.10
2019-04-06T13:28:01.082Z,980.20
2019-04-06T13:30:00.980Z,979.73
2019-04-06T13:32:00.914Z,980.05
2019-04-06T13:34:00.931Z,979.99
2019-04-06T13:36:01.283Z,980.16
2019-04-06T13:38:01.136Z,980.19
2019-04-06T13:40:00.941Z,980.04
2019-04-06T13:42:00.949Z,979.93
2019-04-06T13:44:01.241Z,979.81
2019-04-06T13:46:00.973Z,979.80
2019-04-06T13:48:01.391Z,980.16
2019-04-06T13:50:00.981Z,980.28
2019-04-06T13:52:01.014Z,979.75
2019-04-06T13:54:01.126Z,980.08
2019-04-06T13:56:01.028Z,979.96
2019-04-06T13:58:01.000Z,979.97
2019-04-06T14:00:00.976Z,979.96
2019-04-06T14:02:01.265Z,979.60
2019-04-06T14:04:00.976Z,979.72
2019-04-06T14:06:01.002Z,979.74
2019-04-06T14:08:01.026Z,979.84
2019-04-06T14:10:01.046Z,979.81
2019-04-06T14:12:00.770Z,979.42
2019-04-06T14:14:01.096Z,980.15
2019-04-06T14:16:01.153Z,979.79
2019-04-06T14:18:01.384Z,979.79
2019-04-06T14:20:01.136Z,980.01
2019-04-06T14:22:01.425Z,979.51
2019-04-06T14:24:01.203Z,979.89
2019-04-06T14:26:01.068Z,979.74
2019-04-06T14:28:01.015Z,979.76
2019-04-06T14:30:00.774Z,979.63
2019-04-06T14:32:01.037Z,979.57
2019-04-06T14:34:01.059Z,979.76
2019-04-06T14:36:00.935Z,979.65
2019-04-06T14:38:01.395Z,979.62
2019-04-06T14:40:01.182Z,979.81
2019-04-06T14:42:01.106Z,979.53
2019-04-06T14:44:01.126Z,979.93
2019-04-06T14:46:01.122Z,979.50
2019-04-06T14:48:01.133Z,979.64
2019-04-06T14:50:01.144Z,979.58
2019-04-06T14:52:01.156Z,979.79
2019-04-06T14:54:01.500Z,979.41
2019-04-06T14:56:00.947Z,979.62
2019-04-06T14:58:01.237Z,979.64
2019-04-06T15:00:01.131Z,979.80
2019-04-06T15:02:01.221Z,979.49
2019-04-06T15:04:01.240Z,979.70
2019-04-06T15:06:01.505Z,979.31
2019-04-06T15:08:01.149Z,979.78
2019-04-06T15:10:01.358Z,979.44
2019-04-06T15:12:01.287Z,979.91
2019-04-06T15:14:01.304Z,979.72
2019-04-06T15:16:01.046Z,979.51
2019-04-06T15:18:01.405Z,979.49
2019-04-06T15:20:00.886Z,979.78
2019-04-06T15:22:01.126Z,979.69
2019-04-06T15:24:01.329Z,979.64
2019-04-06T15:26:01.221Z,979.45
2019-04-06T15:28:01.178Z,979.43
2019-04-06T15:30:01.134Z,979.20
2019-04-06T15:32:01.094Z,979.34
2019-04-06T15:34:00.986Z,979.35
2019-04-06T15:36:01.118Z,979.15
2019-04-06T15:38:01.328Z,979.27
2019-04-06T15:40:01.127Z,979.30
2019-04-06T15:42:01.424Z,979.40
2019-04-06T15:44:01.257Z,979.36
2019-04-06T15:46:01.168Z,979.23
2019-04-06T15:48:01.551Z,979.21
2019-04-06T15:50:01.291Z,979.51
2019-04-06T15:52:10.276Z,979.09
2019-04-06T15:54:01.467Z,978.89
2019-04-06T15:56:01.423Z,979.20
2019-04-06T15:58:01.067Z,979.25
2019-04-06T16:00:01.248Z,978.92
2019-04-06T16:02:02.952Z,978.74
2019-04-06T16:04:01.233Z,978.94
2019-04-06T16:06:01.188Z,979.12
2019-04-06T16:08:01.525Z,979.01
2019-04-06T16:10:01.415Z,979.07
2019-04-06T16:12:01.249Z,978.98
2019-04-06T16:14:01.477Z,979.12
2019-04-06T16:16:01.176Z,978.92
2019-04-06T16:18:01.191Z,978.79
2019-04-06T16:20:01.917Z,979.16
2019-04-06T16:22:01.092Z,978.80
2019-04-06T16:24:02.989Z,978.96
2019-04-06T16:26:01.565Z,978.94
2019-04-06T16:28:01.211Z,978.92
2019-04-06T16:30:01.116Z,978.55
2019-04-06T16:32:10.836Z,978.75
2019-04-06T16:34:01.547Z,978.87
2019-04-06T16:36:01.258Z,978.87
2019-04-06T16:38:01.214Z,978.75
2019-04-06T16:40:01.372Z,978.65
2019-04-06T16:42:01.065Z,978.93
2019-04-06T16:44:01.570Z,978.66
2019-04-06T16:46:01.565Z,978.70
2019-04-06T16:48:01.219Z,978.95
2019-04-06T16:50:01.000Z,978.95
2019-04-06T16:52:01.247Z,978.91
2019-04-06T16:54:01.806Z,978.44
2019-04-06T16:56:01.482Z,978.59
2019-04-06T16:58:01.290Z,978.70
2019-04-06T17:00:01.344Z,978.75
2019-04-06T17:02:01.299Z,978.66
2019-04-06T17:04:01.173Z,979.00
2019-04-06T17:06:01.488Z,978.66
2019-04-06T17:08:10.705Z,979.00
2019-04-06T17:10:01.100Z,978.99
2019-04-06T17:12:01.040Z,978.70
2019-04-06T17:14:01.900Z,978.93
2019-04-06T17:16:01.158Z,978.67
2019-04-06T17:18:01.396Z,978.55
2019-04-06T17:20:02.095Z,978.44
2019-04-06T17:22:01.259Z,978.58
2019-04-06T17:24:01.333Z,978.71
2019-04-06T17:26:01.745Z,978.71
2019-04-06T17:28:01.619Z,978.99
2019-04-06T17:30:01.370Z,978.93
2019-04-06T17:32:01.389Z,978.70
2019-04-06T17:34:01.320Z,978.79
2019-04-06T17:36:01.594Z,978.71
2019-04-06T17:38:01.418Z,978.61
2019-04-06T17:40:01.971Z,978.74
2019-04-06T17:42:01.566Z,978.83
2019-04-06T17:44:01.350Z,978.85
2019-04-06T17:46:01.355Z,978.84
2019-04-06T17:48:01.320Z,978.79
2019-04-06T17:50:01.943Z,978.63
2019-04-06T17:52:01.392Z,978.81
2019-04-06T17:54:01.644Z,978.91
2019-04-06T17:56:01.184Z,978.82
2019-04-06T17:58:01.500Z,978.88
2019-04-06T18:00:01.232Z,978.88
2019-04-06T18:02:01.454Z,978.53
2019-04-06T18:04:01.394Z,978.87
2019-04-06T18:06:01.835Z,978.76
2019-04-06T18:08:01.292Z,978.71
2019-04-06T18:10:01.317Z,978.95
2019-04-06T18:12:01.819Z,978.92
2019-04-06T18:14:01.268Z,978.83
2019-04-06T18:16:01.438Z,978.69
2019-04-06T18:18:01.452Z,978.98
2019-04-06T18:20:02.272Z,978.96
2019-04-06T18:22:02.933Z,979.03
2019-04-06T18:24:01.480Z,978.91
2019-04-06T18:26:01.491Z,978.79
2019-04-06T18:28:01.566Z,979.08
2019-04-06T18:30:01.448Z,978.72
2019-04-06T18:32:01.428Z,978.81
2019-04-06T18:34:01.529Z,978.85
2019-04-06T18:36:01.342Z,978.94
2019-04-06T18:38:01.472Z,978.91
2019-04-06T18:40:01.617Z,978.95
2019-04-06T18:42:01.906Z,978.75
2019-04-06T18:44:01.532Z,978.83
2019-04-06T18:46:01.407Z,978.84
2019-04-06T18:48:01.415Z,978.97
2019-04-06T18:50:01.760Z,978.96
2019-04-06T18:52:01.783Z,978.51
2019-04-06T18:54:01.401Z,979.10
2019-04-06T18:56:01.346Z,979.06
2019-04-06T18:58:10.057Z,978.74
2019-04-06T19:00:01.825Z,978.73
2019-04-06T19:02:01.605Z,978.64
2019-04-06T19:04:01.308Z,978.72
2019-04-06T19:06:01.527Z,978.96
2019-04-06T19:08:01.336Z,979.29
2019-04-06T19:10:01.600Z,979.22
2019-04-06T19:12:01.355Z,978.69
2019-04-06T19:14:01.573Z,978.90
2019-04-06T19:16:01.585Z,978.78
2019-04-06T19:18:01.309Z,979.21
2019-04-06T19:20:01.482Z,979.07
2019-04-06T19:22:01.433Z,978.76
2019-04-06T19:24:01.535Z,978.97
2019-04-06T19:26:01.955Z,978.82
2019-04-06T19:28:01.640Z,978.68
2019-04-06T19:30:01.359Z,978.94
2019-04-06T19:32:01.371Z,979.04
2019-04-06T19:34:01.378Z,979.03
2019-04-06T19:36:01.401Z,979.20
2019-04-06T19:38:02.006Z,979.11
2019-04-06T19:40:01.463Z,978.98
2019-04-06T19:42:01.828Z,979.02
2019-04-06T19:44:01.749Z,978.88
2019-04-06T19:46:02.224Z,979.19
2019-04-06T19:48:02.048Z,979.01
2019-04-06T19:50:01.754Z,978.90
2019-04-06T19:52:01.574Z,979.23
2019-04-06T19:54:04.356Z,979.05
2019-04-06T19:56:01.202Z,979.18
2019-04-06T19:58:01.456Z,979.17
2019-04-06T20:00:01.320Z,978.92
2019-04-06T20:02:01.747Z,978.88
2019-04-06T20:04:01.363Z,979.22
2019-04-06T20:06:01.781Z,978.79
2019-04-06T20:08:01.789Z,979.12
2019-04-06T20:10:01.506Z,979.30
2019-04-06T20:12:06.056Z,978.97
2019-04-06T20:14:01.830Z,979.25
2019-04-06T20:16:02.039Z,979.38
2019-04-06T20:18:01.584Z,979.21
2019-04-06T20:20:01.968Z,979.11
2019-04-06T20:22:01.353Z,978.94
2019-04-06T20:24:01.545Z,979.14
2019-04-06T20:26:01.487Z,979.26
2019-04-06T20:28:01.321Z,979.18
2019-04-06T20:30:01.949Z,979.02
2019-04-06T20:32:01.299Z,979.42
2019-04-06T20:34:01.897Z,979.04
2019-04-06T20:36:01.539Z,979.41
2019-04-06T20:38:01.350Z,979.37
2019-04-06T20:40:01.858Z,979.08
2019-04-06T20:42:01.880Z,979.12
2019-04-06T20:44:01.589Z,979.13
2019-04-06T20:46:01.785Z,979.23
2019-04-06T20:48:01.614Z,979.04
2019-04-06T20:50:01.777Z,979.19
2019-04-06T20:52:01.895Z,978.86
2019-04-06T20:54:01.660Z,979.02
2019-04-06T20:56:01.900Z,979.20
2019-04-06T20:58:01.845Z,979.01
2019-04-06T21:00:01.959Z,979.24
2019-04-06T21:02:01.489Z,979.34
2019-04-06T21:04:02.897Z,979.14
2019-04-06T21:06:01.883Z,979.00
2019-04-06T21:08:02.168Z,979.23
2019-04-06T21:10:01.641Z,979.38
2019-04-06T21:12:01.648Z,979.38
2019-04-06T21:14:02.138Z,979.38
2019-04-06T21:16:02.193Z,979.17
2019-04-06T21:18:01.651Z,979.47
2019-04-06T21:20:01.680Z,979.29
2019-04-06T21:22:01.606Z,979.28
2019-04-06T21:24:02.034Z,979.27
2019-04-06T21:26:01.810Z,979.13
2019-04-06T21:28:02.065Z,979.25
2019-04-06T21:30:01.686Z,979.14
2019-04-06T21:32:01.662Z,979.02
2019-04-06T21:34:10.518Z,979.18
2019-04-06T21:36:01.723Z,979.53
2019-04-06T21:38:02.050Z,979.31
2019-04-06T21:40:02.351Z,979.09
2019-04-06T21:42:01.515Z,978.92
2019-04-06T21:44:02.273Z,979.19
2019-04-06T21:46:02.390Z,979.40
2019-04-06T21:48:01.911Z,979.40
2019-04-06T21:50:02.022Z,979.27
2019-04-06T21:52:02.245Z,979.21
2019-04-06T21:54:01.595Z,979.18
2019-04-06T21:56:05.750Z,979.12
2019-04-06T21:58:02.001Z,979.50
2019-04-06T22:00:02.185Z,979.03
2019-04-06T22:02:01.560Z,979.06
2019-04-06T22:04:02.169Z,979.38
2019-04-06T22:06:01.661Z,979.22
2019-04-06T22:08:02.615Z,979.40
2019-04-06T22:10:01.589Z,979.39
2019-04-06T22:12:01.721Z,979.26
2019-04-06T22:14:01.837Z,979.18
2019-04-06T22:16:01.875Z,979.41
2019-04-06T22:18:01.625Z,979.34
2019-04-06T22:20:01.916Z,979.30
2019-04-06T22:22:02.147Z,979.39
2019-04-06T22:24:01.673Z,979.36
2019-04-06T22:26:01.693Z,979.15
2019-04-06T22:28:01.887Z,979.08
2019-04-06T22:30:01.951Z,979.09
2019-04-06T22:32:02.280Z,979.04
2019-04-06T22:34:01.721Z,979.25
2019-04-06T22:36:02.158Z,978.71
2019-04-06T22:38:01.793Z,979.13
2019-04-06T22:40:02.253Z,979.26
2019-04-06T22:42:02.127Z,979.30
2019-04-06T22:44:01.984Z,979.38
2019-04-06T22:46:01.663Z,979.60
2019-04-06T22:48:01.595Z,979.15
2019-04-06T22:50:01.773Z,979.38
2019-04-06T22:52:02.255Z,979.03
2019-04-06T22:54:01.540Z,979.32
2019-04-06T22:56:01.783Z,979.27
2019-04-06T22:58:01.687Z,979.73
2019-04-06T23:00:01.948Z,979.40
2019-04-06T23:02:01.593Z,979.36
2019-04-06T23:04:01.898Z,979.77
2019-04-06T23:06:01.809Z,979.26
2019-04-06T23:08:01.818Z,979.21
2019-04-06T23:10:02.135Z,979.18
2019-04-06T23:12:01.834Z,978.97
2019-04-06T23:14:02.095Z,978.98
2019-04-06T23:16:02.098Z,979.22
2019-04-06T23:18:01.649Z,979.51
2019-04-06T23:20:02.671Z,979.27
2019-04-06T23:22:01.796Z,979.26
2019-04-06T23:24:03.802Z,978.98
2019-04-06T23:26:02.592Z,979.40
2019-04-06T23:28:01.715Z,979.35
2019-04-06T23:30:01.885Z,979.24
2019-04-06T23:32:02.026Z,979.51
2019-04-06T23:34:02.138Z,979.16
2019-04-06T23:36:02.161Z,979.29
2019-04-06T23:38:01.969Z,979.37
2019-04-06T23:40:01.803Z,979.16
2019-04-06T23:42:01.610Z,979.03
2019-04-06T23:44:01.741Z,979.05
2019-04-06T23:46:01.946Z,979.18
2019-04-06T23:48:01.765Z,979.13
2019-04-06T23:50:02.021Z,979.09
2019-04-06T23:52:01.619Z,979.45
2019-04-06T23:54:01.953Z,979.25
2019-04-06T23:56:02.065Z,979.13
2019-04-06T23:58:01.706Z,979.00
